Terminal Aerodrome Forecast
Issued by NWS

Home | Current Version | Previous Version | Text Only | Print | Product List | Glossary On
Versions: 1 2 3 4 5 6 7 8 9 10 11 12 13 14 15 16 17 18 19 20 21 22 23 24 25 26 27 28 29 30 31 32 33 34 35 36 37 38 39 40 41 42 43 44 45 46 47 48
242
FTUS46 KPQR 142342
TAFUAO
TAF
KUAO 142342Z 1500/1524 00000KT P6SM VCSH SCT025 BKN070
     FM150300 VRB03KT P6SM OVC025
     FM150600 00000KT 4SM BR SCT007 OVC012
     FM151000 00000KT 2SM BR OVC006
     FM151200 00000KT 1/2SM FG OVC006
     FM151800 20002KT 4SM BR SCT006 BKN015
     FM152000 20004KT 6SM BR SCT015 OVC030=

USA.gov is the U.S. government's official web portal to all federal, state and local government web resources and services.